Hauptseite
METAR-TAF:

METAR-TAF

Flughäfen :

Flughafen Parma

Parma, Italien

Breite: 44-49-17N, Länge: 010-17-41E, Höhe: 50 m

Beobachtung

Neuester Wetterbericht von vor 9 Stunden und 22 Minuten, um 18:50 UTC
Wind 4 kt aus Nordost
Temperatur 17°C
Luftfeuchtigkeit 88%
Luftdruck 1020 hPa
Sichtweite: 5000 m
Aufgelockert bewölkt in der Höhe von 2000 ft
Aufgelockert bewölkt in der Höhe von 4000 ft
feuchter Dunst

METAR: LIMP 151850Z 05004KT 5000 BR SCT020 SCT040 17/15 Q1020

Zeit: 06:12 (04:12 UTC)

Prognose

Neuester Wetterbericht von vor 11 Stunden und 12 Minuten, um 17:00 UTC
Gültige Prognose vom 15 um 18 UTC bis 16 um 18 UTC
Wind 5 kt aus unterschiedlichen Richtungen
Sichtweite: 5000 m
Aufgelockert bewölkt in der Höhe von 4000 ft
feuchter Dunst
Zeitweise
vom 16 um 02 UTC bis 16 um 08 UTC
Sichtweite: 2000 m

TAF: LIMP 151700Z 1518/1618 VRB05KT 5000 BR SCT040 TEMPO 1602/1608 2000

Wetterbeobachtungen und Prognosen von mehr als 4000 Flughäfen (METAR und TAF Bericht).

Die verfügbaren Stationen werden durch gelbe und rote Markierungen auf der Karte dargestellt.

Führen Sie die Maus auf sie, um den Namen der Station zu sehen.

Darauf klicken, um die Beobachtung von Wetterbeobachtungen und Prognosen zu sehen.

Um die Karte zu ändern : klicken Sie auf den grünen Tasten mit einem schwarzen Kreuz Zum Vergrößern, auf den grünen Button mit einem Gedankenstrich zu verkleinern, oder auf die grünen Pfeile für benachbarte Karten.


METAR-TAF: